Time;durP1;ratioP1;P1;durP2;ratioP2;P2;SDS_P1;SDS_P2;PMS_P1;PMS_P2;Temp;Humidity;BMP_temperature;BMP_pressure;BME280_temperature;BME280_humidity;BME280_pressure;Samples;Min_cycle;Max_cycle;Signal;HPM_P1;HPM_P2
2022/05/07 00:00:43;;;;;;;4.55;2.83;;;;;;;;;;5089095;28;20024;-80
2022/05/07 00:03:09;;;;;;;5.78;2.78;;;;;;;;;;5089267;28;20027;-74
2022/05/07 00:05:37;;;;;;;3.38;1.83;;;;;;;;;;5089449;28;20027;-78
2022/05/07 00:08:05;;;;;;;2.90;1.83;;;;;;;;;;5089526;28;20117;-77
2022/05/07 00:10:31;;;;;;;3.70;1.90;;;;;;;;;;5089531;28;20024;-74
2022/05/07 00:12:58;;;;;;;2.40;1.60;;;;;;;;;;5081387;28;20404;-78
2022/05/07 00:15:24;;;;;;;4.28;2.08;;;;;;;;;;5089497;28;20030;-75
2022/05/07 00:18:03;;;;;;;2.88;1.85;;;;;;;;;;5089483;28;20024;-74
2022/05/07 00:20:31;;;;;;;4.97;1.75;;;;;;;;;;5089860;28;20028;-75
2022/05/07 00:22:57;;;;;;;3.25;1.80;;;;;;;;;;5088832;28;20035;-78
2022/05/07 00:25:24;;;;;;;2.60;1.50;;;;;;;;;;5089459;28;20028;-75
2022/05/07 00:27:51;;;;;;;3.47;1.70;;;;;;;;;;5089047;28;20396;-73
2022/05/07 00:30:17;;;;;;;4.90;1.75;;;;;;;;;;5089496;28;20087;-77
2022/05/07 00:32:44;;;;;;;1.58;1.35;;;;;;;;;;5089292;28;20043;-76
2022/05/07 00:35:10;;;;;;;3.90;1.50;;;;;;;;;;5085461;28;20059;-77
2022/05/07 00:37:37;;;;;;;1.83;1.00;;;;;;;;;;5089046;28;20032;-77
2022/05/07 00:40:04;;;;;;;5.35;1.30;;;;;;;;;;5089277;28;20036;-77
2022/05/07 00:42:30;;;;;;;2.55;1.30;;;;;;;;;;5088971;28;20036;-76
2022/05/07 00:44:57;;;;;;;2.35;1.17;;;;;;;;;;5088981;28;20059;-78
2022/05/07 00:47:24;;;;;;;2.28;1.10;;;;;;;;;;5089004;28;20028;-75
2022/05/07 00:49:52;;;;;;;2.55;1.00;;;;;;;;;;5088492;28;20027;-72
2022/05/07 00:52:18;;;;;;;2.63;1.40;;;;;;;;;;5087701;28;20089;-74
2022/05/07 00:54:45;;;;;;;5.00;1.65;;;;;;;;;;5088464;28;20032;-75
2022/05/07 00:57:14;;;;;;;4.60;1.60;;;;;;;;;;5087928;28;20052;-72
2022/05/07 00:59:41;;;;;;;3.72;1.30;;;;;;;;;;5088642;28;20031;-72
2022/05/07 01:02:07;;;;;;;3.63;1.00;;;;;;;;;;5088052;28;20032;-74
2022/05/07 01:04:33;;;;;;;1.23;0.80;;;;;;;;;;5088560;28;20396;-72
2022/05/07 01:07:01;;;;;;;2.45;1.08;;;;;;;;;;5087971;28;20044;-71
2022/05/07 01:09:28;;;;;;;4.43;1.02;;;;;;;;;;5087478;28;20035;-71
2022/05/07 01:11:54;;;;;;;5.70;1.90;;;;;;;;;;5086810;28;20042;-73
2022/05/07 01:14:20;;;;;;;1.52;0.90;;;;;;;;;;5088364;28;20028;-73
2022/05/07 01:16:46;;;;;;;1.73;0.90;;;;;;;;;;5087042;28;20016;-71
2022/05/07 01:19:12;;;;;;;3.10;1.00;;;;;;;;;;5087115;28;20040;-76
2022/05/07 01:21:39;;;;;;;1.42;1.08;;;;;;;;;;5085777;28;20024;-74
2022/05/07 01:24:05;;;;;;;1.83;1.15;;;;;;;;;;5087336;28;20108;-71
2022/05/07 01:26:31;;;;;;;4.63;1.48;;;;;;;;;;5081317;28;20024;-76
2022/05/07 01:29:04;;;;;;;3.25;1.20;;;;;;;;;;5087393;28;20016;-71
2022/05/07 01:31:30;;;;;;;3.08;1.23;;;;;;;;;;5087614;28;20016;-71
2022/05/07 01:33:56;;;;;;;2.60;1.30;;;;;;;;;;5087737;28;20034;-71
2022/05/07 01:36:22;;;;;;;2.33;1.20;;;;;;;;;;5087470;28;20028;-76
2022/05/07 01:38:49;;;;;;;2.15;1.50;;;;;;;;;;5087188;28;20055;-71
2022/05/07 01:41:15;;;;;;;3.05;1.50;;;;;;;;;;5086910;28;20591;-71
2022/05/07 01:43:42;;;;;;;2.13;1.30;;;;;;;;;;5087463;28;20031;-75
2022/05/07 01:49:07;;;;;;;3.80;1.30;;;;;;;;;;5101281;28;20031;-76
2022/05/07 01:51:34;;;;;;;2.13;1.30;;;;;;;;;;5087680;28;20401;-78
2022/05/07 01:54:01;;;;;;;3.55;1.60;;;;;;;;;;5087843;28;20032;-77
2022/05/07 01:56:27;;;;;;;3.55;1.30;;;;;;;;;;5087681;28;20043;-77
2022/05/07 01:58:54;;;;;;;2.22;1.40;;;;;;;;;;5088182;28;20070;-74
2022/05/07 02:01:21;;;;;;;1.90;1.42;;;;;;;;;;5087470;28;20069;-75
2022/05/07 02:03:47;;;;;;;5.10;1.63;;;;;;;;;;5087567;28;20487;-77
2022/05/07 02:06:14;;;;;;;2.47;1.92;;;;;;;;;;5087208;28;20042;-75
2022/05/07 02:08:41;;;;;;;3.58;2.20;;;;;;;;;;5086753;28;20468;-75
2022/05/07 02:11:07;;;;;;;3.03;2.38;;;;;;;;;;5087661;28;20088;-78
2022/05/07 02:13:34;;;;;;;5.68;2.65;;;;;;;;;;5087147;28;20174;-78
2022/05/07 02:16:02;;;;;;;5.65;2.45;;;;;;;;;;5087432;28;20044;-76
2022/05/07 02:18:29;;;;;;;5.07;2.50;;;;;;;;;;5086894;28;20051;-78
2022/05/07 02:20:56;;;;;;;3.00;2.38;;;;;;;;;;5087392;28;20024;-78
2022/05/07 02:23:22;;;;;;;2.80;2.40;;;;;;;;;;5087141;28;20026;-76
2022/05/07 02:25:49;;;;;;;4.18;3.03;;;;;;;;;;5087403;28;20032;-77
2022/05/07 02:28:17;;;;;;;6.00;3.17;;;;;;;;;;5085791;28;20050;-75
2022/05/07 02:30:43;;;;;;;4.70;2.95;;;;;;;;;;5086976;28;20028;-71
2022/05/07 02:33:09;;;;;;;3.58;3.08;;;;;;;;;;5085902;28;20452;-78
2022/05/07 02:35:36;;;;;;;3.55;3.03;;;;;;;;;;5086972;28;20027;-78
2022/05/07 02:38:02;;;;;;;4.72;2.97;;;;;;;;;;5086569;28;20050;-73
2022/05/07 02:40:29;;;;;;;4.85;3.63;;;;;;;;;;5086542;28;20063;-79
2022/05/07 02:42:55;;;;;;;4.50;3.38;;;;;;;;;;5086869;28;20423;-71
2022/05/07 02:45:21;;;;;;;7.13;4.05;;;;;;;;;;5085888;28;20512;-71
2022/05/07 02:47:47;;;;;;;8.65;3.55;;;;;;;;;;5086449;28;20035;-71
2022/05/07 02:50:13;;;;;;;5.78;3.85;;;;;;;;;;5085954;28;20039;-73
2022/05/07 02:52:40;;;;;;;3.92;3.42;;;;;;;;;;5085921;28;20047;-74
2022/05/07 02:55:10;;;;;;;8.30;4.05;;;;;;;;;;5086414;28;20032;-75
2022/05/07 02:57:36;;;;;;;4.95;4.45;;;;;;;;;;5086332;28;20128;-78
2022/05/07 03:00:03;;;;;;;4.70;3.80;;;;;;;;;;5086725;28;20495;-72
2022/05/07 03:02:31;;;;;;;5.07;4.03;;;;;;;;;;5086737;28;20043;-72
2022/05/07 03:04:57;;;;;;;5.63;4.15;;;;;;;;;;5086621;28;20028;-73
2022/05/07 03:07:24;;;;;;;7.00;4.43;;;;;;;;;;5086610;28;20040;-77
2022/05/07 03:09:50;;;;;;;7.30;4.60;;;;;;;;;;5085068;28;20041;-78
2022/05/07 03:12:16;;;;;;;7.38;4.82;;;;;;;;;;5086652;28;20453;-78
2022/05/07 03:14:42;;;;;;;6.78;5.18;;;;;;;;;;5086663;28;20040;-79
2022/05/07 03:17:08;;;;;;;6.13;5.20;;;;;;;;;;5080397;28;20036;-75
2022/05/07 03:19:35;;;;;;;8.02;5.88;;;;;;;;;;5076755;28;20112;-77
2022/05/07 03:22:01;;;;;;;7.18;5.00;;;;;;;;;;5079731;28;20024;-71
2022/05/07 03:24:27;;;;;;;8.50;5.32;;;;;;;;;;5079443;28;20670;-78
2022/05/07 03:26:53;;;;;;;8.38;4.82;;;;;;;;;;5078833;28;20032;-76
2022/05/07 03:29:20;;;;;;;7.47;5.05;;;;;;;;;;5077242;28;20476;-72
2022/05/07 03:31:48;;;;;;;9.25;4.63;;;;;;;;;;5078943;28;20036;-77
2022/05/07 03:34:15;;;;;;;8.02;3.70;;;;;;;;;;5078054;28;20040;-77
2022/05/07 03:36:42;;;;;;;5.70;3.58;;;;;;;;;;5078768;28;20040;-74
2022/05/07 03:39:08;;;;;;;8.82;4.35;;;;;;;;;;5079090;28;20024;-72
2022/05/07 03:41:34;;;;;;;6.38;4.57;;;;;;;;;;5078968;28;20032;-77
2022/05/07 03:44:00;;;;;;;6.88;4.25;;;;;;;;;;5079103;28;20032;-73
2022/05/07 03:46:26;;;;;;;5.75;3.35;;;;;;;;;;5078560;28;20043;-76
2022/05/07 03:48:53;;;;;;;8.15;3.47;;;;;;;;;;5080676;28;20016;-71
2022/05/07 03:51:19;;;;;;;7.53;3.78;;;;;;;;;;5081442;28;20039;-76
2022/05/07 03:53:45;;;;;;;8.15;3.65;;;;;;;;;;5082123;28;20524;-76
2022/05/07 03:56:12;;;;;;;7.72;4.50;;;;;;;;;;5083022;28;20023;-71
2022/05/07 03:58:38;;;;;;;8.68;3.90;;;;;;;;;;5082605;28;20750;-77
2022/05/07 04:01:04;;;;;;;6.13;3.78;;;;;;;;;;5082378;28;20024;-71
2022/05/07 04:03:31;;;;;;;6.20;3.03;;;;;;;;;;5081386;28;20651;-76
2022/05/07 04:05:59;;;;;;;5.55;3.35;;;;;;;;;;5081764;28;20103;-71
2022/05/07 04:08:25;;;;;;;12.23;5.82;;;;;;;;;;5080678;28;20086;-73
2022/05/07 04:10:51;;;;;;;9.80;5.90;;;;;;;;;;5082028;28;20053;-70
2022/05/07 04:13:18;;;;;;;9.85;5.40;;;;;;;;;;5081769;28;20085;-76
2022/05/07 04:15:44;;;;;;;8.05;4.45;;;;;;;;;;5082447;28;20038;-74
2022/05/07 04:18:11;;;;;;;7.72;5.63;;;;;;;;;;5081920;28;20035;-74
2022/05/07 04:20:37;;;;;;;11.80;6.47;;;;;;;;;;5081927;28;20051;-77
2022/05/07 04:23:04;;;;;;;10.07;5.72;;;;;;;;;;5082425;28;20040;-72
2022/05/07 04:25:31;;;;;;;9.52;6.50;;;;;;;;;;5074858;28;20028;-75
2022/05/07 04:27:58;;;;;;;9.13;6.60;;;;;;;;;;5082160;28;20138;-76
2022/05/07 04:30:25;;;;;;;8.90;6.55;;;;;;;;;;5080095;28;20042;-74
2022/05/07 04:32:51;;;;;;;8.23;6.28;;;;;;;;;;5081874;28;20047;-75
2022/05/07 04:35:18;;;;;;;11.27;6.72;;;;;;;;;;5081734;28;20024;-76
2022/05/07 04:37:44;;;;;;;10.40;6.60;;;;;;;;;;5080145;28;20040;-76
2022/05/07 04:40:10;;;;;;;9.00;6.22;;;;;;;;;;5082015;28;20123;-76
2022/05/07 04:42:37;;;;;;;9.35;6.38;;;;;;;;;;5081609;28;20039;-73
2022/05/07 04:45:07;;;;;;;8.75;6.30;;;;;;;;;;5081630;28;20035;-71
2022/05/07 04:47:33;;;;;;;10.13;7.03;;;;;;;;;;5082016;28;20035;-75
2022/05/07 04:49:59;;;;;;;11.77;6.25;;;;;;;;;;5081925;28;20047;-72
2022/05/07 04:52:26;;;;;;;8.57;6.20;;;;;;;;;;5081318;28;20109;-74
2022/05/07 04:54:53;;;;;;;13.32;6.55;;;;;;;;;;5079458;28;20020;-76
2022/05/07 04:57:20;;;;;;;14.43;7.18;;;;;;;;;;5080699;28;20032;-71
2022/05/07 04:59:46;;;;;;;9.82;6.13;;;;;;;;;;5078969;28;20023;-72
2022/05/07 05:02:12;;;;;;;9.40;6.18;;;;;;;;;;5080734;28;20036;-78
2022/05/07 05:04:38;;;;;;;8.07;6.00;;;;;;;;;;5080642;28;20020;-72
2022/05/07 05:07:04;;;;;;;15.30;6.80;;;;;;;;;;5079940;28;20052;-71
2022/05/07 05:09:30;;;;;;;11.38;5.88;;;;;;;;;;5078430;28;20037;-72
2022/05/07 05:11:56;;;;;;;11.45;5.95;;;;;;;;;;5080366;28;20031;-72
2022/05/07 05:17:07;;;;;;;9.77;5.97;;;;;;;;;;5080294;28;20085;-72
2022/05/07 05:19:33;;;;;;;9.43;5.55;;;;;;;;;;5081171;28;20132;-71
2022/05/07 05:21:59;;;;;;;8.50;5.28;;;;;;;;;;5080725;28;20024;-71
2022/05/07 05:24:25;;;;;;;8.88;5.53;;;;;;;;;;5080843;28;20551;-70
2022/05/07 05:26:52;;;;;;;7.70;5.63;;;;;;;;;;5080677;28;20089;-73
2022/05/07 05:29:18;;;;;;;7.93;5.70;;;;;;;;;;5078113;28;20077;-71
2022/05/07 05:31:44;;;;;;;9.48;6.15;;;;;;;;;;5080670;28;20056;-71
2022/05/07 05:34:10;;;;;;;13.43;5.57;;;;;;;;;;5080392;28;20853;-72
2022/05/07 05:36:37;;;;;;;8.82;5.03;;;;;;;;;;5080104;28;20028;-70
2022/05/07 05:39:05;;;;;;;8.30;4.93;;;;;;;;;;5080478;28;20028;-71
2022/05/07 05:41:31;;;;;;;6.93;5.00;;;;;;;;;;5079765;28;20055;-71
2022/05/07 05:43:57;;;;;;;8.50;5.03;;;;;;;;;;5080568;28;20135;-71
2022/05/07 05:46:23;;;;;;;8.13;5.40;;;;;;;;;;5079904;28;20403;-71
2022/05/07 05:48:49;;;;;;;9.88;4.75;;;;;;;;;;5080125;28;20036;-71
2022/05/07 05:51:15;;;;;;;7.55;4.85;;;;;;;;;;5080124;28;20032;-71
2022/05/07 05:53:41;;;;;;;8.30;5.15;;;;;;;;;;5079592;28;20044;-71
2022/05/07 05:56:08;;;;;;;9.48;5.43;;;;;;;;;;5079805;28;20036;-74
2022/05/07 05:58:34;;;;;;;8.05;4.82;;;;;;;;;;5080311;28;20044;-71
2022/05/07 06:01:02;;;;;;;8.13;5.22;;;;;;;;;;5080107;28;20048;-71
2022/05/07 06:03:28;;;;;;;8.32;5.70;;;;;;;;;;5078635;28;20055;-72
2022/05/07 06:05:54;;;;;;;12.88;5.80;;;;;;;;;;5079503;28;20034;-71
2022/05/07 06:08:21;;;;;;;7.07;5.13;;;;;;;;;;5079871;28;20043;-71
2022/05/07 06:10:47;;;;;;;6.05;4.95;;;;;;;;;;5079601;28;20032;-71
2022/05/07 06:13:13;;;;;;;5.85;4.15;;;;;;;;;;5079502;28;20040;-71
2022/05/07 06:15:39;;;;;;;13.77;5.47;;;;;;;;;;5079306;28;20031;-72
2022/05/07 06:18:05;;;;;;;8.90;5.00;;;;;;;;;;5078717;28;20028;-75
2022/05/07 06:20:31;;;;;;;6.95;5.40;;;;;;;;;;5076889;28;20043;-72
2022/05/07 06:22:59;;;;;;;7.90;5.63;;;;;;;;;;5079598;28;20073;-76
2022/05/07 06:28:10;;;;;;;9.57;4.95;;;;;;;;;;5079368;28;20085;-72
2022/05/07 06:30:36;;;;;;;7.57;5.40;;;;;;;;;;5077584;28;20024;-72
2022/05/07 06:33:02;;;;;;;8.52;6.28;;;;;;;;;;5079847;28;20529;-72
2022/05/07 06:35:29;;;;;;;9.73;7.05;;;;;;;;;;5079361;28;20040;-71
2022/05/07 06:37:55;;;;;;;9.70;6.63;;;;;;;;;;5079592;28;20031;-73
2022/05/07 06:40:21;;;;;;;7.60;5.07;;;;;;;;;;5079067;28;20036;-71
2022/05/07 06:42:47;;;;;;;7.05;5.00;;;;;;;;;;5079110;28;20024;-72
2022/05/07 06:45:13;;;;;;;7.45;5.10;;;;;;;;;;5079618;28;20097;-73
2022/05/07 06:47:40;;;;;;;5.75;4.05;;;;;;;;;;5079116;28;20058;-72
2022/05/07 06:50:07;;;;;;;2.80;2.25;;;;;;;;;;5078175;28;20111;-73
2022/05/07 06:52:42;;;;;;;5.45;2.20;;;;;;;;;;5068715;28;20040;-72
2022/05/07 06:55:08;;;;;;;4.35;2.00;;;;;;;;;;5074653;28;20024;-71
2022/05/07 06:57:34;;;;;;;5.00;1.80;;;;;;;;;;5076806;28;20401;-71
2022/05/07 07:00:00;;;;;;;6.18;3.33;;;;;;;;;;5079372;28;20090;-72
2022/05/07 07:02:26;;;;;;;5.43;3.15;;;;;;;;;;5079447;28;20078;-72
2022/05/07 07:04:53;;;;;;;3.30;2.50;;;;;;;;;;5078808;28;20042;-72
2022/05/07 07:07:24;;;;;;;5.05;3.70;;;;;;;;;;5073864;28;20059;-72
2022/05/07 07:09:51;;;;;;;5.70;3.55;;;;;;;;;;5064659;28;20036;-72
2022/05/07 07:12:17;;;;;;;5.28;4.05;;;;;;;;;;5061252;28;20032;-72
2022/05/07 07:14:43;;;;;;;5.10;4.32;;;;;;;;;;5061032;28;20029;-71
2022/05/07 07:17:09;;;;;;;5.40;4.07;;;;;;;;;;5066825;28;20104;-71
2022/05/07 07:19:35;;;;;;;7.88;4.35;;;;;;;;;;5067666;28;20046;-73
2022/05/07 07:22:02;;;;;;;6.28;4.53;;;;;;;;;;5077810;28;20032;-72
2022/05/07 07:24:28;;;;;;;6.50;4.35;;;;;;;;;;5082898;28;20039;-72
2022/05/07 07:26:54;;;;;;;4.80;3.78;;;;;;;;;;5082828;28;20356;-73
2022/05/07 07:29:20;;;;;;;8.93;4.80;;;;;;;;;;5081352;28;20064;-74
2022/05/07 07:31:46;;;;;;;5.25;3.65;;;;;;;;;;5082952;28;20089;-71
2022/05/07 07:34:12;;;;;;;5.43;3.72;;;;;;;;;;5082967;28;20306;-71
2022/05/07 07:36:38;;;;;;;5.60;3.88;;;;;;;;;;5080725;28;20024;-71
2022/05/07 07:39:07;;;;;;;4.30;3.53;;;;;;;;;;5068752;28;20043;-71
2022/05/07 07:41:34;;;;;;;4.45;3.22;;;;;;;;;;5077183;28;20031;-73
2022/05/07 07:44:00;;;;;;;5.82;3.58;;;;;;;;;;5082449;28;20069;-72
2022/05/07 07:49:11;;;;;;;5.00;3.53;;;;;;;;;;5073732;28;20404;-71
2022/05/07 07:51:37;;;;;;;6.80;3.55;;;;;;;;;;5069656;28;20027;-73
2022/05/07 07:54:03;;;;;;;5.57;3.42;;;;;;;;;;5073551;28;20043;-71
2022/05/07 07:56:29;;;;;;;4.45;3.30;;;;;;;;;;5073347;28;20024;-72
2022/05/07 07:58:56;;;;;;;6.55;3.28;;;;;;;;;;5066058;28;20028;-71
2022/05/07 08:01:22;;;;;;;5.57;3.20;;;;;;;;;;5082555;28;20039;-73
2022/05/07 08:03:48;;;;;;;4.90;3.05;;;;;;;;;;5082234;28;20030;-71
2022/05/07 08:06:15;;;;;;;6.15;3.42;;;;;;;;;;5082046;28;20031;-71
2022/05/07 08:11:41;;;;;;;6.80;2.90;;;;;;;;;;5082508;28;20071;-71
2022/05/07 08:14:08;;;;;;;7.37;2.73;;;;;;;;;;5082108;28;20487;-71
2022/05/07 08:16:34;;;;;;;5.10;2.22;;;;;;;;;;5075133;28;20664;-71
2022/05/07 08:19:01;;;;;;;6.53;2.40;;;;;;;;;;5080738;28;20028;-71
2022/05/07 08:21:27;;;;;;;8.32;2.72;;;;;;;;;;5081742;28;20111;-71
2022/05/07 08:23:53;;;;;;;9.90;3.08;;;;;;;;;;5081671;28;20032;-71
2022/05/07 08:26:19;;;;;;;6.07;3.60;;;;;;;;;;5080242;28;20789;-71
2022/05/07 08:28:46;;;;;;;8.05;3.47;;;;;;;;;;5081773;28;20051;-71
2022/05/07 08:31:12;;;;;;;5.68;3.20;;;;;;;;;;5076479;28;20085;-71
2022/05/07 08:33:42;;;;;;;8.15;3.20;;;;;;;;;;5081533;28;20096;-71
2022/05/07 08:36:08;;;;;;;7.00;3.25;;;;;;;;;;5081341;28;20368;-70
2022/05/07 08:38:35;;;;;;;5.32;2.78;;;;;;;;;;5077289;28;20032;-71
2022/05/07 08:41:01;;;;;;;6.55;2.70;;;;;;;;;;5075979;28;20077;-76
2022/05/07 08:43:36;;;;;;;5.97;3.13;;;;;;;;;;5081063;28;20201;-71
2022/05/07 08:46:04;;;;;;;5.90;3.10;;;;;;;;;;5081984;28;20031;-72
2022/05/07 08:48:30;;;;;;;6.20;2.25;;;;;;;;;;5081426;28;20043;-71
2022/05/07 08:50:57;;;;;;;5.43;2.85;;;;;;;;;;5081436;28;20028;-72
2022/05/07 08:53:23;;;;;;;5.03;3.17;;;;;;;;;;5079946;28;20519;-72
2022/05/07 08:55:54;;;;;;;7.32;3.50;;;;;;;;;;5080486;28;20028;-72
2022/05/07 08:58:21;;;;;;;13.68;3.78;;;;;;;;;;5080868;28;20876;-72
2022/05/07 09:00:47;;;;;;;8.10;3.95;;;;;;;;;;5071893;28;20021;-71
2022/05/07 09:03:15;;;;;;;5.40;3.80;;;;;;;;;;5081513;28;20726;-74
2022/05/07 09:05:42;;;;;;;5.88;3.10;;;;;;;;;;5080623;28;20024;-71
2022/05/07 09:08:11;;;;;;;7.70;3.33;;;;;;;;;;5080710;28;20055;-73
2022/05/07 09:10:38;;;;;;;8.65;3.22;;;;;;;;;;5080950;28;20028;-71
2022/05/07 09:13:11;;;;;;;8.40;3.88;;;;;;;;;;5081662;28;20068;-73
2022/05/07 09:15:37;;;;;;;7.28;3.80;;;;;;;;;;5079468;28;20103;-71
2022/05/07 09:18:13;;;;;;;7.30;4.13;;;;;;;;;;5080745;28;20906;-72
2022/05/07 09:20:40;;;;;;;11.45;4.47;;;;;;;;;;5080416;28;20024;-73
2022/05/07 09:23:06;;;;;;;6.75;4.30;;;;;;;;;;5079438;28;20035;-71
2022/05/07 09:25:32;;;;;;;10.77;4.82;;;;;;;;;;5079487;28;20039;-72
2022/05/07 09:27:58;;;;;;;6.55;4.50;;;;;;;;;;5072699;28;20055;-75
2022/05/07 09:30:29;;;;;;;8.55;5.20;;;;;;;;;;5077297;28;20036;-71
2022/05/07 09:32:55;;;;;;;6.82;4.32;;;;;;;;;;5080298;28;20047;-71
2022/05/07 09:35:47;;;;;;;6.30;4.05;;;;;;;;;;5080737;28;20028;-73
2022/05/07 09:38:14;;;;;;;7.03;3.92;;;;;;;;;;5074870;28;20088;-72
2022/05/07 09:40:42;;;;;;;5.75;3.70;;;;;;;;;;5080517;28;20031;-70
2022/05/07 09:43:09;;;;;;;8.15;3.97;;;;;;;;;;5080446;28;20086;-75
2022/05/07 09:45:36;;;;;;;5.63;3.58;;;;;;;;;;5079755;28;20036;-70
2022/05/07 09:48:03;;;;;;;8.05;4.38;;;;;;;;;;5080049;28;20077;-71
2022/05/07 09:58:44;;;;;;;7.53;3.60;;;;;;;;;;5080142;28;20055;-73
2022/05/07 10:01:29;;;;;;;4.82;3.15;;;;;;;;;;5079641;28;20041;-72
2022/05/07 10:04:06;;;;;;;9.55;3.90;;;;;;;;;;5080194;28;20037;-72
2022/05/07 10:06:50;;;;;;;6.32;4.18;;;;;;;;;;5078560;28;20039;-72
2022/05/07 10:09:25;;;;;;;8.23;3.72;;;;;;;;;;5080107;28;20028;-72
2022/05/07 10:11:56;;;;;;;35.03;5.80;;;;;;;;;;5079831;28;20020;-75
2022/05/07 10:14:26;;;;;;;8.32;3.45;;;;;;;;;;5079609;28;20811;-72
2022/05/07 10:17:08;;;;;;;5.85;3.30;;;;;;;;;;5079622;28;20028;-72
2022/05/07 10:19:44;;;;;;;4.78;2.95;;;;;;;;;;5079920;28;20051;-73
2022/05/07 10:22:17;;;;;;;6.90;3.50;;;;;;;;;;5080274;28;20036;-72
2022/05/07 10:24:44;;;;;;;7.78;3.78;;;;;;;;;;5080141;28;20125;-72
2022/05/07 10:27:23;;;;;;;7.80;3.42;;;;;;;;;;5079244;28;20054;-75
2022/05/07 10:29:50;;;;;;;8.98;3.25;;;;;;;;;;5077830;28;20039;-72
2022/05/07 10:32:21;;;;;;;3.53;2.42;;;;;;;;;;5079455;28;20378;-74
2022/05/07 10:34:51;;;;;;;4.35;2.55;;;;;;;;;;5079892;28;20032;-72
2022/05/07 10:37:17;;;;;;;3.40;2.38;;;;;;;;;;5079573;28;20028;-73
2022/05/07 10:39:50;;;;;;;3.35;2.30;;;;;;;;;;5079830;28;20032;-73
2022/05/07 10:42:17;;;;;;;3.03;2.30;;;;;;;;;;5078426;28;20055;-72
2022/05/07 10:44:44;;;;;;;3.28;2.25;;;;;;;;;;5078745;28;20035;-78
2022/05/07 10:47:10;;;;;;;5.70;2.33;;;;;;;;;;5076785;28;20028;-73
2022/05/07 10:49:50;;;;;;;5.00;2.33;;;;;;;;;;5078715;28;20027;-74
2022/05/07 10:52:16;;;;;;;4.72;2.50;;;;;;;;;;5077639;28;20032;-73
2022/05/07 10:54:42;;;;;;;8.55;2.50;;;;;;;;;;5078292;28;20046;-71
2022/05/07 10:57:08;;;;;;;4.10;2.67;;;;;;;;;;5079299;28;20039;-71
2022/05/07 10:59:35;;;;;;;5.40;2.90;;;;;;;;;;5079064;28;20737;-71
2022/05/07 11:02:05;;;;;;;4.13;2.50;;;;;;;;;;5074013;28;20039;-72
2022/05/07 11:04:32;;;;;;;4.10;2.13;;;;;;;;;;5075066;28;20743;-72
2022/05/07 11:06:58;;;;;;;3.05;2.10;;;;;;;;;;5073409;28;20632;-71
2022/05/07 11:09:25;;;;;;;4.75;2.10;;;;;;;;;;5078136;28;20571;-71
2022/05/07 11:11:56;;;;;;;4.13;2.90;;;;;;;;;;5077629;28;20030;-71
2022/05/07 11:14:27;;;;;;;6.20;3.70;;;;;;;;;;5077335;28;20052;-72
2022/05/07 11:16:55;;;;;;;5.80;3.00;;;;;;;;;;5077897;28;20031;-72
2022/05/07 11:19:27;;;;;;;5.40;2.80;;;;;;;;;;5078596;28;20028;-73
2022/05/07 11:21:54;;;;;;;3.67;2.42;;;;;;;;;;5078041;28;20028;-71
2022/05/07 11:24:21;;;;;;;5.97;3.13;;;;;;;;;;5078599;28;20672;-73
2022/05/07 11:26:51;;;;;;;6.13;2.65;;;;;;;;;;5077890;28;20028;-71
2022/05/07 11:29:17;;;;;;;4.15;2.40;;;;;;;;;;5075410;28;20036;-73
2022/05/07 11:31:43;;;;;;;4.60;2.35;;;;;;;;;;5078455;28;20688;-73
2022/05/07 11:34:11;;;;;;;6.50;2.40;;;;;;;;;;5078144;28;20052;-73
2022/05/07 11:36:38;;;;;;;6.63;2.20;;;;;;;;;;5071818;28;20027;-72
2022/05/07 11:39:08;;;;;;;6.05;2.70;;;;;;;;;;5078011;28;20036;-72
2022/05/07 11:41:35;;;;;;;4.72;2.13;;;;;;;;;;5076148;28;20030;-71
2022/05/07 11:46:53;;;;;;;3.97;1.83;;;;;;;;;;5077829;28;20035;-73
2022/05/07 11:49:28;;;;;;;5.32;2.72;;;;;;;;;;5076742;28;20411;-72
2022/05/07 11:52:14;;;;;;;4.65;1.83;;;;;;;;;;5074158;28;20107;-72
2022/05/07 11:54:50;;;;;;;5.63;1.88;;;;;;;;;;5077392;28;20048;-72
2022/05/07 11:57:29;;;;;;;3.50;2.08;;;;;;;;;;5076617;28;20107;-72
2022/05/07 11:59:56;;;;;;;3.50;2.17;;;;;;;;;;5067439;28;20054;-72
2022/05/07 12:02:22;;;;;;;2.65;2.03;;;;;;;;;;5078267;28;20051;-72
2022/05/07 12:04:58;;;;;;;3.05;2.10;;;;;;;;;;5077908;28;20054;-73
2022/05/07 12:07:24;;;;;;;5.00;2.28;;;;;;;;;;5077899;28;20044;-71
2022/05/07 12:09:50;;;;;;;4.70;2.38;;;;;;;;;;5079591;28;20038;-71
2022/05/07 12:12:16;;;;;;;5.60;2.25;;;;;;;;;;5081538;28;20028;-72
2022/05/07 12:14:42;;;;;;;5.10;2.20;;;;;;;;;;5079640;28;20686;-72
2022/05/07 12:19:53;;;;;;;3.97;2.03;;;;;;;;;;5081606;28;20046;-73
2022/05/07 12:30:33;;;;;;;4.90;2.58;;;;;;;;;;5079359;28;20039;-72
2022/05/07 12:33:00;;;;;;;4.43;2.47;;;;;;;;;;5081702;28;20115;-73
2022/05/07 12:35:26;;;;;;;5.97;3.47;;;;;;;;;;5081554;28;20113;-72
2022/05/07 12:37:52;;;;;;;6.65;2.70;;;;;;;;;;5080811;28;20032;-73
2022/05/07 12:40:18;;;;;;;3.10;1.70;;;;;;;;;;5081946;28;20472;-73
2022/05/07 12:42:44;;;;;;;3.65;1.75;;;;;;;;;;5080714;28;20047;-73
2022/05/07 12:45:11;;;;;;;5.97;2.40;;;;;;;;;;5081484;28;20028;-73
2022/05/07 12:47:38;;;;;;;4.60;2.50;;;;;;;;;;5081101;28;20479;-72
2022/05/07 12:50:05;;;;;;;4.15;2.10;;;;;;;;;;5080586;28;20678;-73
2022/05/07 12:52:31;;;;;;;3.45;1.85;;;;;;;;;;5054979;28;20038;-73
2022/05/07 12:54:57;;;;;;;3.75;1.90;;;;;;;;;;5080055;28;20039;-72
2022/05/07 12:57:23;;;;;;;2.75;1.92;;;;;;;;;;5081318;28;20069;-73
2022/05/07 12:59:49;;;;;;;3.95;1.67;;;;;;;;;;5080820;28;20032;-72
2022/05/07 13:02:15;;;;;;;2.80;1.70;;;;;;;;;;5076535;28;20632;-73
2022/05/07 13:04:42;;;;;;;2.67;1.70;;;;;;;;;;5080237;28;20036;-72
2022/05/07 13:07:08;;;;;;;5.88;1.75;;;;;;;;;;5072340;28;20048;-72
2022/05/07 13:09:34;;;;;;;2.15;1.63;;;;;;;;;;5080661;28;20034;-73
2022/05/07 13:12:02;;;;;;;2.55;1.90;;;;;;;;;;5079710;28;20472;-72
2022/05/07 13:14:30;;;;;;;3.60;2.22;;;;;;;;;;5080536;28;20039;-73
2022/05/07 13:16:56;;;;;;;2.75;1.80;;;;;;;;;;5080168;28;20028;-72
2022/05/07 13:19:23;;;;;;;3.17;1.80;;;;;;;;;;5080710;28;20499;-73
2022/05/07 13:21:49;;;;;;;4.75;1.65;;;;;;;;;;5079580;28;20107;-72
2022/05/07 13:24:16;;;;;;;4.32;1.73;;;;;;;;;;5079970;28;20795;-72
2022/05/07 13:26:42;;;;;;;4.07;1.75;;;;;;;;;;5080701;28;20035;-72
2022/05/07 13:29:09;;;;;;;2.85;1.35;;;;;;;;;;5077972;28;20024;-72
2022/05/07 13:31:37;;;;;;;2.20;1.70;;;;;;;;;;5080645;28;20762;-72
2022/05/07 13:34:04;;;;;;;2.92;1.70;;;;;;;;;;5080193;28;20688;-73
2022/05/07 13:36:30;;;;;;;4.32;2.08;;;;;;;;;;5080003;28;20091;-72
2022/05/07 13:38:58;;;;;;;3.15;1.60;;;;;;;;;;5080383;28;20028;-72
2022/05/07 13:41:26;;;;;;;2.58;1.88;;;;;;;;;;5079833;28;20043;-72
2022/05/07 13:43:53;;;;;;;5.07;2.15;;;;;;;;;;5078795;28;20032;-73
2022/05/07 13:46:19;;;;;;;4.28;1.70;;;;;;;;;;5081583;28;20065;-72
2022/05/07 13:48:45;;;;;;;3.92;1.52;;;;;;;;;;5082311;28;20077;-72
2022/05/07 13:51:11;;;;;;;4.03;1.90;;;;;;;;;;5082124;28;20116;-71
2022/05/07 13:53:37;;;;;;;6.35;2.03;;;;;;;;;;5082227;28;20036;-71
2022/05/07 13:56:04;;;;;;;5.57;1.90;;;;;;;;;;5079291;28;20580;-72
2022/05/07 13:58:30;;;;;;;4.32;1.85;;;;;;;;;;5080436;28;20028;-73
2022/05/07 14:00:56;;;;;;;4.80;2.05;;;;;;;;;;5078375;28;20361;-72
2022/05/07 14:03:23;;;;;;;4.25;2.00;;;;;;;;;;5079542;28;20032;-73
2022/05/07 14:05:50;;;;;;;6.95;2.13;;;;;;;;;;5079470;28;20047;-71
2022/05/07 14:08:16;;;;;;;2.10;1.65;;;;;;;;;;5078832;28;20051;-71
2022/05/07 14:10:42;;;;;;;3.47;1.88;;;;;;;;;;5079476;28;20052;-72
2022/05/07 14:13:09;;;;;;;6.22;2.08;;;;;;;;;;5079605;28;20040;-72
2022/05/07 14:15:35;;;;;;;2.72;1.80;;;;;;;;;;5077335;28;20487;-71
2022/05/07 14:18:01;;;;;;;9.77;1.73;;;;;;;;;;5079345;28;20111;-72
2022/05/07 14:20:27;;;;;;;3.15;1.63;;;;;;;;;;5079049;28;20028;-72
2022/05/07 14:22:54;;;;;;;4.55;2.17;;;;;;;;;;5079533;28;20173;-72
2022/05/07 14:25:20;;;;;;;5.22;2.17;;;;;;;;;;5079210;28;20047;-71
2022/05/07 14:27:46;;;;;;;3.17;1.98;;;;;;;;;;5078634;28;20135;-72
2022/05/07 14:30:12;;;;;;;3.28;2.20;;;;;;;;;;5079506;28;20055;-71
2022/05/07 14:32:39;;;;;;;5.15;2.28;;;;;;;;;;5078257;28;20032;-71
2022/05/07 14:35:11;;;;;;;5.32;2.33;;;;;;;;;;5069994;28;20036;-71
2022/05/07 14:37:38;;;;;;;2.85;2.08;;;;;;;;;;5079478;28;20088;-71
2022/05/07 14:42:49;;;;;;;6.88;1.90;;;;;;;;;;5079070;28;20177;-71
2022/05/07 14:45:15;;;;;;;3.22;1.90;;;;;;;;;;5077831;28;20024;-71
2022/05/07 14:47:41;;;;;;;2.95;1.90;;;;;;;;;;5078935;28;20559;-71
2022/05/07 14:50:08;;;;;;;4.43;2.00;;;;;;;;;;5078307;28;20036;-72
2022/05/07 14:52:34;;;;;;;2.97;1.80;;;;;;;;;;5078454;28;20663;-71
2022/05/07 14:55:00;;;;;;;2.70;1.90;;;;;;;;;;5077809;28;20032;-70
2022/05/07 14:57:26;;;;;;;3.47;1.80;;;;;;;;;;5070800;28;20032;-71
2022/05/07 14:59:52;;;;;;;3.00;2.00;;;;;;;;;;5073631;28;20031;-71
2022/05/07 15:02:19;;;;;;;3.25;1.88;;;;;;;;;;5078682;28;20035;-71
2022/05/07 15:04:45;;;;;;;4.85;2.35;;;;;;;;;;5078368;28;20471;-72
2022/05/07 15:07:12;;;;;;;3.53;2.30;;;;;;;;;;5079173;28;20040;-71
2022/05/07 15:12:23;;;;;;;4.57;2.58;;;;;;;;;;5079374;28;20074;-72
2022/05/07 15:14:49;;;;;;;5.30;2.92;;;;;;;;;;5076716;28;20543;-71
2022/05/07 15:17:17;;;;;;;2.97;2.28;;;;;;;;;;5077109;28;20058;-71
2022/05/07 15:19:43;;;;;;;3.67;2.17;;;;;;;;;;5077992;28;20036;-72
2022/05/07 15:22:09;;;;;;;3.40;1.98;;;;;;;;;;5078591;28;20035;-71
2022/05/07 15:24:36;;;;;;;2.40;2.20;;;;;;;;;;5078427;28;20040;-71